createdAt,value
2023-03-01T00:00:33.715Z,92.21
2023-03-01T00:01:33.698Z,92.63
2023-03-01T00:02:33.704Z,92.99
2023-03-01T00:03:33.716Z,92.94
2023-03-01T00:04:33.656Z,92.94
2023-03-01T00:05:33.639Z,93.37
2023-03-01T00:06:33.800Z,93.93
2023-03-01T00:07:33.607Z,94.04
2023-03-01T00:08:33.597Z,93.93
2023-03-01T00:09:33.578Z,93.89
2023-03-01T00:10:33.564Z,93.99
2023-03-01T00:11:33.544Z,94.38
2023-03-01T00:12:33.532Z,94.42
2023-03-01T00:13:33.538Z,94.31
2023-03-01T00:14:33.500Z,93.95
2023-03-01T00:15:33.482Z,94.06
2023-03-01T00:16:33.701Z,93.89
2023-03-01T00:17:33.449Z,93.95
2023-03-01T00:18:33.435Z,93.64
2023-03-01T00:19:33.430Z,93.57
2023-03-01T00:20:33.402Z,93.26
2023-03-01T00:21:33.431Z,93.37
2023-03-01T00:22:33.375Z,93.47
2023-03-01T00:23:33.356Z,93.41
2023-03-01T00:24:33.343Z,93.83
2023-03-01T00:25:33.325Z,94.25
2023-03-01T00:26:33.429Z,94.35
2023-03-01T00:27:33.298Z,94.57
2023-03-01T00:28:33.285Z,94.78
2023-03-01T00:29:33.262Z,94.78
2023-03-01T00:30:33.277Z,94.95
2023-03-01T00:31:33.248Z,95.26
2023-03-01T00:32:33.217Z,94.95
2023-03-01T00:33:33.201Z,94.95
2023-03-01T00:34:33.182Z,94.84
2023-03-01T00:35:33.206Z,94.95
2023-03-01T00:36:33.553Z,94.57
2023-03-01T00:37:33.147Z,94.57
2023-03-01T00:38:33.124Z,94.15
2023-03-01T00:39:33.108Z,94.04
2023-03-01T00:40:33.090Z,94.35
2023-03-01T00:41:33.102Z,94.04
2023-03-01T00:42:33.068Z,93.93
2023-03-01T00:43:33.048Z,93.83
2023-03-01T00:44:33.028Z,94.15
2023-03-01T00:45:33.013Z,93.87
2023-03-01T00:46:33.468Z,94.08
2023-03-01T00:47:32.979Z,93.87
2023-03-01T00:48:32.966Z,94.67
2023-03-01T00:49:32.958Z,95.51
2023-03-01T00:50:32.935Z,95.83
2023-03-01T00:51:32.931Z,95.62
2023-03-01T00:52:32.908Z,95.26
2023-03-01T00:53:32.894Z,95.05
2023-03-01T00:54:32.877Z,95.15
2023-03-01T00:55:32.860Z,94.42
2023-03-01T00:56:33.280Z,94.42
2023-03-01T00:57:32.824Z,94.53
2023-03-01T00:58:32.810Z,94.46
2023-03-01T00:59:32.794Z,94.67
2023-03-01T01:00:32.776Z,94.35
2023-03-01T01:01:32.837Z,94.99
2023-03-01T01:02:32.805Z,94.35
2023-03-01T01:03:32.730Z,95.09
2023-03-01T01:04:32.714Z,95.09
2023-03-01T01:05:32.699Z,94.89
2023-03-01T01:06:33.078Z,95.15
2023-03-01T01:07:32.666Z,95.26
2023-03-01T01:08:32.647Z,95.26
2023-03-01T01:09:32.640Z,94.73
2023-03-01T01:10:32.615Z,94.95
2023-03-01T01:11:32.625Z,94.21
2023-03-01T01:12:32.585Z,94.42
2023-03-01T01:13:32.570Z,94.53
2023-03-01T01:14:32.552Z,94.35
2023-03-01T01:15:32.561Z,94.46
2023-03-01T01:16:32.956Z,94.89
2023-03-01T01:17:32.503Z,95.31
2023-03-01T01:18:32.487Z,95.41
2023-03-01T01:19:32.472Z,95.09
2023-03-01T01:20:32.479Z,95.31
2023-03-01T01:21:32.446Z,95.31
2023-03-01T01:22:32.425Z,95.41
2023-03-01T01:23:32.423Z,95.31
2023-03-01T01:24:32.388Z,94.82
2023-03-01T01:25:32.372Z,95.24
2023-03-01T01:26:32.850Z,95.35
2023-03-01T01:27:32.345Z,94.76
2023-03-01T01:28:32.332Z,95.67
2023-03-01T01:29:32.308Z,95.77
2023-03-01T01:30:32.307Z,95.87
2023-03-01T01:31:32.387Z,96.03
2023-03-01T01:32:32.322Z,95.60
2023-03-01T01:33:32.257Z,96.13
2023-03-01T01:34:32.236Z,96.34
2023-03-01T01:35:32.263Z,95.60
2023-03-01T01:36:32.721Z,95.81
2023-03-01T01:37:32.186Z,96.87
2023-03-01T01:38:32.173Z,96.66
2023-03-01T01:39:32.152Z,96.66
2023-03-01T01:40:32.144Z,96.45
2023-03-01T01:41:32.116Z,96.34
2023-03-01T01:42:32.103Z,96.23
2023-03-01T01:43:32.085Z,96.55
2023-03-01T01:44:32.077Z,96.23
2023-03-01T01:45:32.055Z,96.34
2023-03-01T01:46:32.582Z,96.23
2023-03-01T01:47:32.083Z,96.13
2023-03-01T01:48:32.004Z,96.13
2023-03-01T01:49:31.993Z,96.55
2023-03-01T01:50:31.973Z,96.66
2023-03-01T01:51:31.958Z,96.77
2023-03-01T01:52:31.942Z,96.23
2023-03-01T01:53:31.926Z,96.66
2023-03-01T01:54:31.909Z,96.77
2023-03-01T01:55:31.894Z,96.77
2023-03-01T01:56:32.324Z,97.08
2023-03-01T01:57:31.860Z,97.29
2023-03-01T01:58:31.869Z,97.50
2023-03-01T01:59:31.830Z,96.66
2023-03-01T02:00:31.817Z,96.93
2023-03-01T02:01:31.799Z,97.29
2023-03-01T02:02:31.825Z,97.25
2023-03-01T02:03:31.880Z,97.25
2023-03-01T02:04:31.748Z,97.08
2023-03-01T02:05:31.742Z,97.19
2023-03-01T02:06:32.038Z,97.08
2023-03-01T02:07:31.702Z,97.08
2023-03-01T02:08:31.690Z,97.29
2023-03-01T02:09:31.672Z,97.19
2023-03-01T02:10:31.656Z,97.08
2023-03-01T02:11:31.640Z,97.29
2023-03-01T02:12:31.618Z,97.08
2023-03-01T02:13:31.609Z,97.08
2023-03-01T02:14:31.588Z,97.19
2023-03-01T02:15:31.579Z,96.87
2023-03-01T02:16:32.057Z,97.02
2023-03-01T02:17:31.541Z,97.33
2023-03-01T02:18:31.526Z,97.29
2023-03-01T02:19:31.510Z,97.29
2023-03-01T02:20:31.502Z,97.33
2023-03-01T02:21:31.473Z,97.19
2023-03-01T02:22:31.520Z,97.33
2023-03-01T02:23:31.445Z,97.33
2023-03-01T02:24:31.433Z,97.19
2023-03-01T02:25:31.412Z,97.02
2023-03-01T02:26:31.695Z,96.97
2023-03-01T02:27:31.382Z,97.29
2023-03-01T02:28:31.364Z,97.19
2023-03-01T02:29:31.363Z,97.19
2023-03-01T02:30:31.334Z,97.23
2023-03-01T02:31:31.360Z,97.02
2023-03-01T02:32:31.302Z,97.13
2023-03-01T02:33:31.282Z,96.70
2023-03-01T02:34:31.272Z,96.81
2023-03-01T02:35:31.266Z,97.02
2023-03-01T02:36:31.551Z,96.91
2023-03-01T02:37:31.222Z,96.70
2023-03-01T02:38:31.205Z,96.70
2023-03-01T02:39:31.192Z,96.49
2023-03-01T02:40:31.175Z,96.49
2023-03-01T02:41:31.160Z,96.39
2023-03-01T02:42:31.142Z,96.53
2023-03-01T02:43:31.133Z,96.81
2023-03-01T02:44:31.109Z,96.75
2023-03-01T02:45:31.100Z,97.13
2023-03-01T02:46:31.431Z,97.27
2023-03-01T02:47:31.066Z,97.33
2023-03-01T02:48:31.049Z,97.27
2023-03-01T02:49:31.033Z,97.06
2023-03-01T02:50:31.018Z,97.27
2023-03-01T02:51:30.998Z,97.13
2023-03-01T02:52:30.993Z,97.27
2023-03-01T02:53:30.965Z,97.23
2023-03-01T02:54:30.949Z,97.27
2023-03-01T02:55:30.936Z,96.85
2023-03-01T02:56:31.250Z,96.75
2023-03-01T02:57:30.911Z,97.06
2023-03-01T02:58:30.886Z,97.27
2023-03-01T02:59:30.873Z,97.69
2023-03-01T03:00:30.890Z,97.75
2023-03-01T03:01:30.836Z,98.18
2023-03-01T03:02:30.823Z,97.55
2023-03-01T03:03:30.878Z,97.75
2023-03-01T03:04:30.789Z,97.86
2023-03-01T03:05:30.775Z,97.86
2023-03-01T03:06:31.133Z,97.97
2023-03-01T03:07:30.742Z,98.07
2023-03-01T03:08:30.764Z,97.38
2023-03-01T03:09:30.718Z,97.55
2023-03-01T03:10:30.692Z,97.80
2023-03-01T03:11:30.680Z,97.38
2023-03-01T03:12:30.661Z,97.38
2023-03-01T03:13:30.648Z,98.12
2023-03-01T03:14:30.626Z,97.91
2023-03-01T03:15:30.612Z,97.80
2023-03-01T03:16:30.933Z,97.91
2023-03-01T03:17:30.582Z,98.12
2023-03-01T03:18:30.564Z,97.91
2023-03-01T03:19:30.568Z,98.22
2023-03-01T03:20:30.533Z,98.39
2023-03-01T03:21:30.561Z,98.43
2023-03-01T03:22:30.501Z,98.12
2023-03-01T03:23:30.486Z,98.12
2023-03-01T03:24:30.465Z,98.22
2023-03-01T03:25:30.484Z,98.01
2023-03-01T03:26:30.815Z,98.16
2023-03-01T03:27:30.417Z,98.12
2023-03-01T03:28:30.413Z,98.12
2023-03-01T03:29:30.385Z,97.69
2023-03-01T03:30:30.379Z,98.12
2023-03-01T03:31:30.402Z,97.80
2023-03-01T03:32:30.371Z,97.85
2023-03-01T03:33:30.314Z,97.85
2023-03-01T03:34:30.306Z,97.95
2023-03-01T03:35:30.389Z,98.06
2023-03-01T03:36:30.504Z,97.95
2023-03-01T03:37:30.253Z,97.85
2023-03-01T03:38:30.238Z,97.95
2023-03-01T03:39:30.223Z,98.06
2023-03-01T03:40:30.205Z,98.06
2023-03-01T03:41:30.189Z,97.53
2023-03-01T03:42:30.175Z,97.95
2023-03-01T03:43:30.159Z,97.85
2023-03-01T03:44:30.146Z,98.16
2023-03-01T03:45:30.156Z,98.16
2023-03-01T03:46:30.108Z,98.16
2023-03-01T03:47:30.091Z,98.48
2023-03-01T03:48:30.076Z,98.58
2023-03-01T03:49:30.070Z,98.16
2023-03-01T03:50:30.047Z,98.37
2023-03-01T03:51:30.058Z,98.69
2023-03-01T03:52:30.012Z,98.86
2023-03-01T03:53:29.994Z,99.18
2023-03-01T03:54:29.977Z,99.07
2023-03-01T03:55:29.962Z,99.28
2023-03-01T03:56:30.424Z,98.90
2023-03-01T03:57:29.930Z,98.80
2023-03-01T03:58:29.921Z,98.80
2023-03-01T03:59:29.909Z,98.80
2023-03-01T04:00:29.902Z,98.80
2023-03-01T04:01:29.911Z,98.80
2023-03-01T04:02:29.896Z,99.01
2023-03-01T04:03:29.847Z,98.80
2023-03-01T04:04:29.822Z,98.58
2023-03-01T04:05:29.800Z,98.80
2023-03-01T04:06:30.104Z,98.27
2023-03-01T04:07:29.767Z,98.69
2023-03-01T04:08:29.750Z,98.52
2023-03-01T04:09:29.740Z,98.63
2023-03-01T04:10:29.726Z,98.31
2023-03-01T04:11:29.730Z,98.37
2023-03-01T04:12:29.686Z,98.42
2023-03-01T04:13:29.683Z,98.42
2023-03-01T04:14:29.659Z,98.63
2023-03-01T04:15:29.665Z,98.63
2023-03-01T04:16:30.163Z,98.06
2023-03-01T04:17:29.604Z,98.31
2023-03-01T04:18:29.595Z,98.21
2023-03-01T04:19:29.575Z,98.21
2023-03-01T04:20:29.554Z,98.21
2023-03-01T04:21:29.540Z,98.63
2023-03-01T04:22:29.525Z,98.31
2023-03-01T04:23:29.508Z,97.99
2023-03-01T04:24:29.492Z,98.10
2023-03-01T04:25:29.477Z,98.10
2023-03-01T04:26:29.763Z,98.52
2023-03-01T04:27:29.441Z,98.57
2023-03-01T04:28:29.427Z,98.42
2023-03-01T04:29:29.411Z,98.10
2023-03-01T04:30:29.394Z,99.05
2023-03-01T04:31:29.425Z,98.52
2023-03-01T04:32:29.382Z,98.52
2023-03-01T04:33:29.346Z,98.63
2023-03-01T04:34:29.325Z,98.46
2023-03-01T04:35:29.381Z,98.74
2023-03-01T04:36:29.566Z,99.05
2023-03-01T04:37:29.287Z,99.16
2023-03-01T04:38:29.267Z,98.99
2023-03-01T04:39:29.249Z,98.84
2023-03-01T04:40:29.232Z,99.79
2023-03-01T04:41:29.219Z,99.63
2023-03-01T04:42:29.201Z,99.37
2023-03-01T04:43:29.199Z,99.31
2023-03-01T04:44:29.167Z,99.37
2023-03-01T04:45:29.149Z,99.16
2023-03-01T04:46:29.593Z,99.64
2023-03-01T04:47:29.117Z,99.85
2023-03-01T04:48:29.114Z,98.94
2023-03-01T04:49:29.085Z,99.37
2023-03-01T04:50:29.071Z,99.32
2023-03-01T04:51:29.057Z,99.05
2023-03-01T04:52:29.033Z,99.16
2023-03-01T04:53:29.019Z,98.84
2023-03-01T04:54:29.004Z,99.05
2023-03-01T04:55:28.992Z,99.26
2023-03-01T04:56:29.246Z,99.26
2023-03-01T04:57:28.955Z,98.94
2023-03-01T04:58:28.938Z,98.94
2023-03-01T04:59:28.932Z,98.31
2023-03-01T05:00:28.920Z,98.46
2023-03-01T05:01:28.891Z,98.78
2023-03-01T05:02:28.879Z,98.57
2023-03-01T05:03:28.866Z,98.78
2023-03-01T05:04:28.875Z,99.10
2023-03-01T05:05:28.836Z,99.10
2023-03-01T05:06:29.096Z,99.20
2023-03-01T05:07:28.805Z,99.10
2023-03-01T05:08:28.790Z,98.99
2023-03-01T05:09:28.755Z,99.10
2023-03-01T05:10:28.760Z,98.78
2023-03-01T05:11:28.730Z,98.36
2023-03-01T05:12:28.712Z,98.68
2023-03-01T05:13:28.690Z,98.68
2023-03-01T05:14:28.677Z,98.46
2023-03-01T05:15:28.662Z,98.36
2023-03-01T05:16:28.965Z,98.61
2023-03-01T05:17:28.626Z,98.61
2023-03-01T05:18:28.623Z,98.61
2023-03-01T05:19:28.594Z,98.57
2023-03-01T05:20:28.576Z,98.36
2023-03-01T05:21:28.561Z,98.61
2023-03-01T05:22:28.545Z,98.93
2023-03-01T05:23:28.531Z,98.88
2023-03-01T05:24:28.517Z,99.73
2023-03-01T05:25:28.497Z,99.52
2023-03-01T05:26:28.957Z,99.16
2023-03-01T05:27:28.464Z,99.31
2023-03-01T05:28:28.445Z,99.41
2023-03-01T05:29:28.437Z,99.10
2023-03-01T05:30:28.408Z,99.05
2023-03-01T05:31:28.491Z,99.31
2023-03-01T05:32:28.384Z,99.20
2023-03-01T05:33:28.364Z,98.99
2023-03-01T05:34:28.352Z,99.20
2023-03-01T05:35:28.365Z,99.46
2023-03-01T05:36:28.331Z,99.14
2023-03-01T05:37:28.304Z,99.14
2023-03-01T05:38:28.282Z,99.10
2023-03-01T05:39:28.262Z,99.14
2023-03-01T05:40:28.250Z,99.04
2023-03-01T05:41:28.229Z,98.93
2023-03-01T05:42:28.212Z,99.14
2023-03-01T05:43:28.199Z,98.93
2023-03-01T05:44:28.179Z,99.04
2023-03-01T05:45:28.176Z,98.97
2023-03-01T05:46:28.541Z,99.04
2023-03-01T05:47:28.138Z,99.77
2023-03-01T05:48:28.115Z,99.67
2023-03-01T05:49:28.101Z,99.67
2023-03-01T05:50:28.101Z,99.67
2023-03-01T05:51:28.068Z,98.93
2023-03-01T05:52:28.045Z,98.72
2023-03-01T05:53:28.031Z,99.29
2023-03-01T05:54:28.021Z,98.97
2023-03-01T05:55:29.092Z,99.67
2023-03-01T05:56:28.227Z,99.57
2023-03-01T05:57:27.996Z,99.14
2023-03-01T05:58:27.959Z,99.14
2023-03-01T05:59:27.935Z,99.04
2023-03-01T06:00:27.919Z,99.46
2023-03-01T06:01:27.902Z,99.99
2023-03-01T06:02:27.892Z,99.14
2023-03-01T06:03:27.878Z,99.77
2023-03-01T06:04:27.901Z,99.41
2023-03-01T06:05:27.940Z,99.41
2023-03-01T06:06:29.148Z,99.67
2023-03-01T06:07:27.801Z,99.52
2023-03-01T06:08:27.802Z,99.37
2023-03-01T06:09:27.775Z,99.63
2023-03-01T06:10:27.758Z,99.63
2023-03-01T06:11:27.743Z,99.26
2023-03-01T06:12:27.722Z,99.16
2023-03-01T06:13:27.720Z,99.26
2023-03-01T06:14:27.705Z,99.75
2023-03-01T06:15:27.683Z,99.85
2023-03-01T06:16:27.751Z,99.05
2023-03-01T06:17:27.645Z,99.32
2023-03-01T06:18:27.624Z,99.54
2023-03-01T06:19:27.616Z,99.64
2023-03-01T06:20:27.591Z,98.80
2023-03-01T06:21:27.578Z,98.86
2023-03-01T06:22:27.569Z,99.18
2023-03-01T06:23:27.541Z,98.65
2023-03-01T06:24:27.543Z,98.54
2023-03-01T06:25:27.512Z,98.33
2023-03-01T06:26:27.494Z,98.22
2023-03-01T06:27:27.485Z,98.12
2023-03-01T06:28:27.466Z,98.22
2023-03-01T06:29:27.449Z,97.75
2023-03-01T06:30:27.438Z,97.86
2023-03-01T06:31:27.453Z,97.44
2023-03-01T06:32:27.478Z,97.33
2023-03-01T06:33:27.381Z,97.75
2023-03-01T06:34:27.368Z,97.13
2023-03-01T06:35:27.380Z,97.02
2023-03-01T06:36:27.331Z,97.08
2023-03-01T06:37:27.331Z,97.08
2023-03-01T06:38:27.311Z,97.08
2023-03-01T06:39:27.279Z,96.55
2023-03-01T06:40:27.261Z,97.03
2023-03-01T06:41:27.246Z,96.99
2023-03-01T06:42:27.230Z,96.36
2023-03-01T06:43:27.236Z,96.80
2023-03-01T06:44:27.380Z,96.44
2023-03-01T06:45:27.191Z,96.19
2023-03-01T06:46:27.239Z,95.40
2023-03-01T06:47:27.155Z,95.78
2023-03-01T06:48:27.132Z,95.57
2023-03-01T06:49:27.130Z,94.48
2023-03-01T06:50:27.152Z,94.06
2023-03-01T06:51:27.101Z,93.62
2023-03-01T06:52:27.086Z,92.25
2023-03-01T06:53:27.059Z,92.04
2023-03-01T06:54:27.060Z,91.41
2023-03-01T06:55:27.033Z,91.03
2023-03-01T06:56:27.039Z,91.03
2023-03-01T06:57:27.044Z,91.13
2023-03-01T06:58:26.994Z,91.24
2023-03-01T06:59:26.966Z,91.24
2023-03-01T07:00:26.982Z,91.17
2023-03-01T07:01:26.950Z,91.28
2023-03-01T07:02:26.951Z,91.45
2023-03-01T07:03:26.901Z,91.70
2023-03-01T07:04:26.879Z,91.81
2023-03-01T07:05:26.867Z,92.02
2023-03-01T07:06:26.849Z,91.91
2023-03-01T07:07:26.830Z,92.02
2023-03-01T07:08:26.815Z,92.33
2023-03-01T07:09:26.804Z,92.33
2023-03-01T07:10:26.793Z,92.65
2023-03-01T07:11:26.777Z,92.44
2023-03-01T07:12:26.756Z,92.65
2023-03-01T07:13:26.745Z,92.71
2023-03-01T07:14:26.743Z,92.65
2023-03-01T07:15:26.715Z,92.71
2023-03-01T07:16:26.797Z,92.61
2023-03-01T07:17:26.683Z,92.82
2023-03-01T07:18:26.663Z,93.07
2023-03-01T07:19:26.648Z,93.45
2023-03-01T07:20:26.854Z,93.34
2023-03-01T07:21:26.613Z,93.34
2023-03-01T07:22:26.602Z,93.09
2023-03-01T07:23:26.585Z,93.24
2023-03-01T07:24:26.568Z,93.62
2023-03-01T07:25:26.556Z,93.83
2023-03-01T07:26:26.538Z,94.04
2023-03-01T07:27:26.525Z,93.83
2023-03-01T07:28:26.503Z,93.93
2023-03-01T07:29:26.494Z,93.83
2023-03-01T07:30:26.477Z,94.04
2023-03-01T07:31:26.462Z,93.72
2023-03-01T07:32:26.502Z,93.93
2023-03-01T07:33:26.451Z,93.51
2023-03-01T07:34:26.409Z,93.47
2023-03-01T07:35:26.432Z,93.57
2023-03-01T07:36:26.406Z,93.22
2023-03-01T07:37:26.370Z,93.43
2023-03-01T07:38:26.353Z,93.22
2023-03-01T07:39:26.337Z,92.96
2023-03-01T07:40:26.330Z,92.80
2023-03-01T07:41:26.311Z,92.86
2023-03-01T07:42:26.289Z,93.07
2023-03-01T07:43:26.268Z,92.86
2023-03-01T07:44:26.266Z,93.28
2023-03-01T07:45:26.276Z,93.18
2023-03-01T07:46:26.237Z,92.86
2023-03-01T07:47:26.217Z,92.71
2023-03-01T07:48:26.194Z,92.50
2023-03-01T07:49:26.193Z,92.50
2023-03-01T07:50:26.163Z,91.97
2023-03-01T07:51:26.157Z,92.19
2023-03-01T07:52:26.135Z,92.25
2023-03-01T07:53:26.116Z,92.61
2023-03-01T07:54:26.114Z,92.35
2023-03-01T07:55:26.090Z,92.14
2023-03-01T07:56:26.075Z,92.35
2023-03-01T07:57:26.055Z,91.94
2023-03-01T07:58:26.041Z,92.00
2023-03-01T07:59:26.028Z,91.89
2023-03-01T08:00:26.010Z,91.89
2023-03-01T08:01:26.057Z,91.58
2023-03-01T08:02:25.985Z,91.37
2023-03-01T08:03:25.972Z,91.43
2023-03-01T08:04:25.947Z,91.12
2023-03-01T08:05:25.933Z,91.12
2023-03-01T08:06:25.918Z,91.01
2023-03-01T08:07:25.910Z,90.70
2023-03-01T08:08:25.888Z,90.07
2023-03-01T08:09:25.871Z,89.92
2023-03-01T08:10:25.865Z,89.72
2023-03-01T08:11:25.884Z,89.36
2023-03-01T08:12:25.828Z,89.25
2023-03-01T08:13:25.811Z,88.90
2023-03-01T08:14:25.798Z,88.59
2023-03-01T08:15:25.782Z,89.32
2023-03-01T08:16:25.835Z,88.79
2023-03-01T08:17:25.757Z,89.00
2023-03-01T08:18:25.738Z,88.90
2023-03-01T08:19:25.722Z,88.37
2023-03-01T08:20:25.789Z,87.33
2023-03-01T08:21:25.686Z,86.70
2023-03-01T08:22:25.680Z,86.98
2023-03-01T08:23:25.664Z,86.55
2023-03-01T08:24:25.650Z,86.52
2023-03-01T08:25:25.628Z,86.31
2023-03-01T08:26:25.623Z,86.27
2023-03-01T08:27:25.747Z,85.96
2023-03-01T08:28:25.586Z,85.43
2023-03-01T08:29:25.584Z,85.50
2023-03-01T08:30:25.570Z,85.39
2023-03-01T08:31:25.624Z,85.29
2023-03-01T08:32:25.549Z,84.83
2023-03-01T08:33:25.549Z,84.10
2023-03-01T08:34:25.492Z,82.99
2023-03-01T08:35:25.501Z,82.53
2023-03-01T08:36:25.480Z,82.12
2023-03-01T08:37:25.472Z,82.01
2023-03-01T08:38:25.439Z,82.32
2023-03-01T08:39:25.510Z,81.97
2023-03-01T08:40:25.470Z,80.72
2023-03-01T08:41:25.401Z,81.35
2023-03-01T08:42:25.392Z,80.51
2023-03-01T08:43:26.356Z,78.70
2023-03-01T08:44:25.355Z,76.30
2023-03-01T08:45:25.346Z,76.47
2023-03-01T08:46:25.328Z,76.68
2023-03-01T08:47:25.313Z,76.57
2023-03-01T08:48:25.300Z,77.48
2023-03-01T08:49:25.282Z,76.96
2023-03-01T08:50:25.276Z,76.12
2023-03-01T08:51:25.258Z,76.12
2023-03-01T08:52:25.242Z,74.46
2023-03-01T08:53:25.227Z,75.08
2023-03-01T08:54:25.213Z,74.74
2023-03-01T08:55:25.204Z,75.15
2023-03-01T08:56:25.185Z,74.84
2023-03-01T08:57:25.170Z,74.52
2023-03-01T08:58:25.151Z,73.80
2023-03-01T08:59:25.142Z,73.59
2023-03-01T09:00:25.133Z,73.80
2023-03-01T09:01:25.116Z,74.52
2023-03-01T09:02:25.136Z,74.21
2023-03-01T09:03:25.316Z,74.11
2023-03-01T09:04:25.075Z,72.09
2023-03-01T09:05:25.052Z,71.68
2023-03-01T09:06:25.052Z,72.51
2023-03-01T09:07:25.029Z,71.58
2023-03-01T09:08:25.034Z,71.99
2023-03-01T09:09:24.999Z,71.89
2023-03-01T09:10:24.995Z,72.17
2023-03-01T09:11:24.981Z,72.62
2023-03-01T09:12:24.974Z,71.96
2023-03-01T09:13:24.947Z,71.12
2023-03-01T09:14:24.931Z,71.02
2023-03-01T09:15:24.921Z,70.57
2023-03-01T09:16:24.986Z,70.23
2023-03-01T09:17:24.899Z,70.64
2023-03-01T09:18:24.881Z,69.71
2023-03-01T09:19:27.277Z,69.40
2023-03-01T09:20:24.852Z,69.09
2023-03-01T09:21:37.229Z,68.25
2023-03-01T09:22:24.832Z,68.56
2023-03-01T09:23:24.810Z,68.32
2023-03-01T09:24:24.803Z,67.91
2023-03-01T09:25:24.785Z,66.77
2023-03-01T09:26:24.777Z,66.56
2023-03-01T09:27:24.769Z,66.87
2023-03-01T09:28:30.121Z,66.77
2023-03-01T09:29:24.760Z,66.63
2023-03-01T09:30:24.716Z,65.93
2023-03-01T09:31:24.704Z,66.63
2023-03-01T09:32:24.722Z,66.42
2023-03-01T09:33:24.674Z,65.59
2023-03-01T09:34:24.662Z,65.48
2023-03-01T09:35:24.666Z,64.14
2023-03-01T09:36:24.637Z,63.69
2023-03-01T09:37:24.622Z,64.83
2023-03-01T09:38:25.977Z,65.17
2023-03-01T09:39:24.606Z,64.21
2023-03-01T09:40:24.580Z,63.69
2023-03-01T09:41:24.568Z,63.79
2023-03-01T09:42:24.554Z,63.17
2023-03-01T09:43:24.540Z,62.45
2023-03-01T09:44:24.527Z,63.59
2023-03-01T09:45:24.512Z,64.62
2023-03-01T09:46:24.521Z,62.73
2023-03-01T09:47:24.490Z,63.14
2023-03-01T09:48:24.479Z,62.41
2023-03-01T09:49:24.470Z,61.69
2023-03-01T09:50:24.453Z,61.24
2023-03-01T09:51:24.438Z,60.62
2023-03-01T09:52:24.467Z,60.83
2023-03-01T09:53:24.410Z,60.41
2023-03-01T09:54:24.395Z,60.31
2023-03-01T09:55:24.382Z,60.41
2023-03-01T09:56:24.370Z,59.35
2023-03-01T09:57:24.365Z,58.52
2023-03-01T09:58:24.343Z,58.62
2023-03-01T09:59:24.338Z,59.22
2023-03-01T10:00:24.358Z,59.22
2023-03-01T10:01:24.304Z,58.70
2023-03-01T10:02:24.356Z,59.74
2023-03-01T10:03:24.275Z,59.63
2023-03-01T10:04:24.294Z,58.59
2023-03-01T10:05:24.251Z,59.22
2023-03-01T10:06:34.468Z,60.36
2023-03-01T10:07:24.229Z,59.84
2023-03-01T10:08:24.215Z,58.78
2023-03-01T10:09:24.205Z,58.28
2023-03-01T10:10:24.184Z,58.26
2023-03-01T10:11:25.324Z,58.88
2023-03-01T10:12:24.164Z,58.26
2023-03-01T10:13:24.151Z,58.67
2023-03-01T10:14:24.143Z,59.81
2023-03-01T10:15:24.125Z,59.30
2023-03-01T10:16:24.115Z,59.19
2023-03-01T10:17:24.103Z,59.11
2023-03-01T10:18:24.093Z,59.81
2023-03-01T10:19:24.074Z,59.50
2023-03-01T10:20:24.067Z,59.40
2023-03-01T10:21:24.049Z,57.53
2023-03-01T10:22:24.047Z,57.53
2023-03-01T10:23:24.026Z,57.74
2023-03-01T10:24:24.012Z,57.12
2023-03-01T10:25:24.003Z,58.36
2023-03-01T10:26:23.986Z,58.26
2023-03-01T10:27:23.981Z,57.84
2023-03-01T10:28:23.966Z,58.98
2023-03-01T10:29:23.963Z,58.98
2023-03-01T10:30:23.940Z,57.43
2023-03-01T10:31:23.948Z,56.05
2023-03-01T10:32:25.178Z,56.05
2023-03-01T10:33:23.898Z,57.30
2023-03-01T10:34:23.887Z,56.16
2023-03-01T10:35:23.874Z,55.54
2023-03-01T10:36:23.865Z,56.24
2023-03-01T10:37:23.848Z,55.93
2023-03-01T10:38:23.836Z,54.58
2023-03-01T10:39:23.826Z,54.58
2023-03-01T10:40:23.812Z,53.85
2023-03-01T10:41:23.805Z,53.96
2023-03-01T10:42:23.789Z,54.79
2023-03-01T10:43:23.776Z,54.91
2023-03-01T10:44:23.761Z,55.43
2023-03-01T10:45:25.791Z,55.33
2023-03-01T10:46:23.761Z,55.74
2023-03-01T10:47:23.724Z,55.20
2023-03-01T10:48:23.718Z,54.19
2023-03-01T10:49:23.704Z,53.46
2023-03-01T10:50:23.705Z,52.30
2023-03-01T10:51:23.680Z,50.77
2023-03-01T10:52:23.665Z,50.87
2023-03-01T10:53:23.653Z,51.89
2023-03-01T10:54:23.639Z,52.51
2023-03-01T10:55:23.625Z,52.48
2023-03-01T10:56:23.617Z,51.55
2023-03-01T10:57:23.599Z,50.93
2023-03-01T10:58:23.591Z,50.82
2023-03-01T10:59:23.575Z,51.14
2023-03-01T11:00:23.568Z,49.58
2023-03-01T11:01:23.576Z,50.21
2023-03-01T11:02:25.432Z,49.79
2023-03-01T11:03:23.534Z,50.21
2023-03-01T11:04:23.559Z,51.73
2023-03-01T11:05:23.509Z,51.94
2023-03-01T11:06:23.498Z,51.84
2023-03-01T11:07:23.487Z,51.73
2023-03-01T11:08:23.465Z,51.09
2023-03-01T11:09:23.456Z,51.92
2023-03-01T11:10:23.442Z,51.81
2023-03-01T11:11:23.428Z,50.86
2023-03-01T11:12:23.420Z,51.28
2023-03-01T11:13:23.410Z,51.58
2023-03-01T11:14:27.399Z,47.76
2023-03-01T11:15:23.382Z,48.69
2023-03-01T11:16:23.389Z,49.00
2023-03-01T11:17:23.362Z,47.97
2023-03-01T11:18:30.987Z,48.48
2023-03-01T11:19:23.335Z,48.48
2023-03-01T11:20:24.715Z,48.15
2023-03-01T11:21:23.318Z,48.07
2023-03-01T11:22:23.413Z,47.42
2023-03-01T11:23:23.283Z,47.32
2023-03-01T11:24:23.275Z,47.74
2023-03-01T11:25:23.262Z,45.05
2023-03-01T11:26:23.250Z,45.13
2023-03-01T11:27:23.240Z,45.23
2023-03-01T11:28:23.225Z,44.62
2023-03-01T11:29:23.217Z,45.42
2023-03-01T11:30:23.215Z,45.53
2023-03-01T11:31:23.222Z,45.11
2023-03-01T11:32:23.389Z,45.73
2023-03-01T11:33:23.165Z,45.11
2023-03-01T11:34:23.151Z,43.59
2023-03-01T11:35:23.144Z,44.62
2023-03-01T11:36:23.172Z,44.41
2023-03-01T11:37:23.145Z,43.66
2023-03-01T11:38:23.124Z,45.54
2023-03-01T11:39:23.093Z,46.47
2023-03-01T11:40:23.086Z,46.17
2023-03-01T11:41:23.069Z,45.96
2023-03-01T11:42:23.059Z,46.17
2023-03-01T11:43:23.052Z,46.47
2023-03-01T11:44:23.034Z,47.30
2023-03-01T11:45:23.038Z,46.77
2023-03-01T11:46:23.075Z,45.63
2023-03-01T11:47:23.141Z,45.63
2023-03-01T11:48:22.989Z,46.45
2023-03-01T11:49:22.981Z,45.73
2023-03-01T11:50:22.964Z,45.73
2023-03-01T11:51:22.988Z,45.21
2023-03-01T11:52:22.941Z,44.82
2023-03-01T11:53:22.952Z,45.65
2023-03-01T11:54:22.924Z,45.65
2023-03-01T11:55:22.945Z,46.58
2023-03-01T11:56:24.017Z,46.99
2023-03-01T11:57:26.931Z,46.45
2023-03-01T11:58:22.877Z,46.14
2023-03-01T11:59:22.866Z,45.94
2023-03-01T12:00:22.847Z,46.14
2023-03-01T12:01:22.839Z,47.17
2023-03-01T12:02:22.930Z,45.94
2023-03-01T12:03:22.816Z,46.25
2023-03-01T12:04:22.895Z,45.50
2023-03-01T12:05:22.791Z,48.08
2023-03-01T12:06:22.782Z,47.98
2023-03-01T12:07:22.778Z,46.43
2023-03-01T12:08:22.762Z,47.13
2023-03-01T12:09:22.754Z,46.74
2023-03-01T12:10:22.816Z,45.89
2023-03-01T12:11:22.734Z,46.20
2023-03-01T12:12:22.730Z,45.07
2023-03-01T12:13:22.710Z,44.45
2023-03-01T12:14:22.726Z,44.35
2023-03-01T12:15:22.684Z,43.63
2023-03-01T12:16:36.336Z,44.66
2023-03-01T12:17:22.660Z,45.07
2023-03-01T12:18:22.647Z,45.38
2023-03-01T12:19:22.638Z,43.60
2023-03-01T12:20:22.641Z,43.19
2023-03-01T12:21:22.613Z,43.40
2023-03-01T12:22:22.608Z,42.47
2023-03-01T12:23:22.591Z,44.04
2023-03-01T12:24:22.580Z,43.01
2023-03-01T12:25:22.566Z,43.83
2023-03-01T12:26:22.565Z,44.23
2023-03-01T12:27:22.548Z,45.69
2023-03-01T12:28:22.530Z,45.28
2023-03-01T12:29:22.520Z,45.46
2023-03-01T12:30:22.518Z,43.19
2023-03-01T12:31:22.558Z,43.90
2023-03-01T12:32:22.640Z,42.27
2023-03-01T12:33:22.489Z,43.48
2023-03-01T12:34:22.474Z,41.96
2023-03-01T12:35:22.453Z,43.63
2023-03-01T12:36:22.508Z,41.96
2023-03-01T12:37:22.455Z,43.50
2023-03-01T12:38:22.431Z,41.96
2023-03-01T12:39:22.413Z,43.81
2023-03-01T12:40:22.404Z,41.83
2023-03-01T12:41:22.397Z,41.52
2023-03-01T12:42:22.386Z,42.24
2023-03-01T12:43:22.367Z,40.49
2023-03-01T12:44:22.362Z,40.70
2023-03-01T12:45:22.341Z,41.73
2023-03-01T12:46:22.333Z,40.29
2023-03-01T12:47:22.330Z,41.96
2023-03-01T12:48:22.307Z,41.83
2023-03-01T12:49:22.304Z,41.83
2023-03-01T12:50:22.290Z,44.20
2023-03-01T12:51:22.281Z,40.19
2023-03-01T12:52:22.274Z,41.82